sensor_id;sensor_type;location;lat;lon;timestamp;P1;durP1;ratioP1;P2;durP2;ratioP2
15635;SDS011;7917;50.818;6.972;2023-04-16T00:02:20;21.33;;;10.55;;
15635;SDS011;7917;50.818;6.972;2023-04-16T00:04:47;19.95;;;10.52;;
15635;SDS011;7917;50.818;6.972;2023-04-16T00:07:13;21.27;;;10.70;;
15635;SDS011;7917;50.818;6.972;2023-04-16T00:09:40;19.45;;;10.95;;
15635;SDS011;7917;50.818;6.972;2023-04-16T00:12:07;21.75;;;11.05;;
15635;SDS011;7917;50.818;6.972;2023-04-16T00:14:34;17.27;;;10.48;;
15635;SDS011;7917;50.818;6.972;2023-04-16T00:17:00;25.05;;;10.35;;
15635;SDS011;7917;50.818;6.972;2023-04-16T00:19:28;20.25;;;10.02;;
15635;SDS011;7917;50.818;6.972;2023-04-16T00:21:54;21.65;;;12.10;;
15635;SDS011;7917;50.818;6.972;2023-04-16T00:24:21;19.52;;;11.30;;
15635;SDS011;7917;50.818;6.972;2023-04-16T00:26:47;24.75;;;11.98;;
15635;SDS011;7917;50.818;6.972;2023-04-16T00:29:14;19.38;;;11.40;;
15635;SDS011;7917;50.818;6.972;2023-04-16T00:31:40;22.90;;;11.95;;
15635;SDS011;7917;50.818;6.972;2023-04-16T00:34:07;18.30;;;12.05;;
15635;SDS011;7917;50.818;6.972;2023-04-16T00:36:35;21.40;;;12.45;;
15635;SDS011;7917;50.818;6.972;2023-04-16T00:39:01;23.58;;;12.65;;
15635;SDS011;7917;50.818;6.972;2023-04-16T00:41:28;19.50;;;12.30;;
15635;SDS011;7917;50.818;6.972;2023-04-16T00:43:55;23.17;;;12.70;;
15635;SDS011;7917;50.818;6.972;2023-04-16T00:46:22;20.92;;;12.95;;
15635;SDS011;7917;50.818;6.972;2023-04-16T00:48:50;24.38;;;12.38;;
15635;SDS011;7917;50.818;6.972;2023-04-16T00:51:18;26.85;;;12.73;;
15635;SDS011;7917;50.818;6.972;2023-04-16T00:53:46;24.27;;;12.60;;
15635;SDS011;7917;50.818;6.972;2023-04-16T00:56:13;18.45;;;12.13;;
15635;SDS011;7917;50.818;6.972;2023-04-16T00:58:40;22.65;;;13.32;;
15635;SDS011;7917;50.818;6.972;2023-04-16T01:01:07;21.95;;;12.20;;
15635;SDS011;7917;50.818;6.972;2023-04-16T01:03:35;23.23;;;12.38;;
15635;SDS011;7917;50.818;6.972;2023-04-16T01:06:04;22.05;;;12.52;;
15635;SDS011;7917;50.818;6.972;2023-04-16T01:08:31;22.70;;;12.63;;
15635;SDS011;7917;50.818;6.972;2023-04-16T01:10:59;21.67;;;13.07;;
15635;SDS011;7917;50.818;6.972;2023-04-16T01:13:25;21.20;;;13.25;;
15635;SDS011;7917;50.818;6.972;2023-04-16T01:15:52;25.27;;;13.90;;
15635;SDS011;7917;50.818;6.972;2023-04-16T01:18:24;23.98;;;15.07;;
15635;SDS011;7917;50.818;6.972;2023-04-16T01:21:01;28.73;;;15.65;;
15635;SDS011;7917;50.818;6.972;2023-04-16T01:23:28;21.42;;;13.63;;
15635;SDS011;7917;50.818;6.972;2023-04-16T01:25:55;29.20;;;14.48;;
15635;SDS011;7917;50.818;6.972;2023-04-16T01:28:21;20.70;;;13.43;;
15635;SDS011;7917;50.818;6.972;2023-04-16T01:30:48;28.58;;;13.32;;
15635;SDS011;7917;50.818;6.972;2023-04-16T01:33:17;26.35;;;14.25;;
15635;SDS011;7917;50.818;6.972;2023-04-16T01:35:44;19.80;;;13.25;;
15635;SDS011;7917;50.818;6.972;2023-04-16T01:38:11;23.60;;;13.55;;
15635;SDS011;7917;50.818;6.972;2023-04-16T01:40:38;26.05;;;14.32;;
15635;SDS011;7917;50.818;6.972;2023-04-16T01:43:05;30.30;;;14.98;;
15635;SDS011;7917;50.818;6.972;2023-04-16T01:45:31;24.33;;;13.85;;
15635;SDS011;7917;50.818;6.972;2023-04-16T01:47:59;25.20;;;14.65;;
15635;SDS011;7917;50.818;6.972;2023-04-16T01:50:25;29.17;;;15.82;;
15635;SDS011;7917;50.818;6.972;2023-04-16T01:52:52;31.48;;;16.13;;
15635;SDS011;7917;50.818;6.972;2023-04-16T01:55:20;34.72;;;17.90;;
15635;SDS011;7917;50.818;6.972;2023-04-16T01:57:46;26.33;;;14.98;;
15635;SDS011;7917;50.818;6.972;2023-04-16T02:00:13;30.88;;;16.40;;
15635;SDS011;7917;50.818;6.972;2023-04-16T02:02:40;31.48;;;15.82;;
15635;SDS011;7917;50.818;6.972;2023-04-16T02:05:07;29.58;;;16.63;;
15635;SDS011;7917;50.818;6.972;2023-04-16T02:07:33;24.50;;;14.95;;
15635;SDS011;7917;50.818;6.972;2023-04-16T02:10:00;26.92;;;15.93;;
15635;SDS011;7917;50.818;6.972;2023-04-16T02:12:29;33.05;;;15.90;;
15635;SDS011;7917;50.818;6.972;2023-04-16T02:14:56;29.13;;;15.52;;
15635;SDS011;7917;50.818;6.972;2023-04-16T02:17:23;30.35;;;15.82;;
15635;SDS011;7917;50.818;6.972;2023-04-16T02:19:49;28.63;;;15.75;;
15635;SDS011;7917;50.818;6.972;2023-04-16T02:22:16;32.50;;;16.45;;
15635;SDS011;7917;50.818;6.972;2023-04-16T02:24:45;29.27;;;16.77;;
15635;SDS011;7917;50.818;6.972;2023-04-16T02:27:14;28.55;;;15.98;;
15635;SDS011;7917;50.818;6.972;2023-04-16T02:29:41;27.25;;;16.38;;
15635;SDS011;7917;50.818;6.972;2023-04-16T02:32:08;27.23;;;15.77;;
15635;SDS011;7917;50.818;6.972;2023-04-16T02:34:35;31.63;;;17.40;;
15635;SDS011;7917;50.818;6.972;2023-04-16T02:37:04;31.08;;;17.40;;
15635;SDS011;7917;50.818;6.972;2023-04-16T02:39:30;27.50;;;17.35;;
15635;SDS011;7917;50.818;6.972;2023-04-16T02:41:57;31.45;;;18.05;;
15635;SDS011;7917;50.818;6.972;2023-04-16T02:44:24;31.75;;;17.98;;
15635;SDS011;7917;50.818;6.972;2023-04-16T02:46:52;34.55;;;17.90;;
15635;SDS011;7917;50.818;6.972;2023-04-16T02:49:18;33.95;;;17.98;;
15635;SDS011;7917;50.818;6.972;2023-04-16T02:51:45;38.95;;;17.45;;
15635;SDS011;7917;50.818;6.972;2023-04-16T02:54:11;36.05;;;19.30;;
15635;SDS011;7917;50.818;6.972;2023-04-16T02:56:38;35.25;;;18.30;;
15635;SDS011;7917;50.818;6.972;2023-04-16T02:59:05;32.80;;;17.98;;
15635;SDS011;7917;50.818;6.972;2023-04-16T03:01:32;31.08;;;17.42;;
15635;SDS011;7917;50.818;6.972;2023-04-16T03:03:59;32.58;;;16.95;;
15635;SDS011;7917;50.818;6.972;2023-04-16T03:06:26;31.70;;;17.23;;
15635;SDS011;7917;50.818;6.972;2023-04-16T03:08:52;30.60;;;16.45;;
15635;SDS011;7917;50.818;6.972;2023-04-16T03:11:19;28.00;;;16.60;;
15635;SDS011;7917;50.818;6.972;2023-04-16T03:13:45;31.30;;;16.33;;
15635;SDS011;7917;50.818;6.972;2023-04-16T03:16:12;32.58;;;16.15;;
15635;SDS011;7917;50.818;6.972;2023-04-16T03:18:39;29.80;;;17.17;;
15635;SDS011;7917;50.818;6.972;2023-04-16T03:21:07;28.95;;;15.50;;
15635;SDS011;7917;50.818;6.972;2023-04-16T03:23:33;33.25;;;17.25;;
15635;SDS011;7917;50.818;6.972;2023-04-16T03:26:00;35.08;;;16.75;;
15635;SDS011;7917;50.818;6.972;2023-04-16T03:28:27;37.30;;;16.30;;
15635;SDS011;7917;50.818;6.972;2023-04-16T03:30:54;34.65;;;16.50;;
15635;SDS011;7917;50.818;6.972;2023-04-16T03:33:20;26.55;;;16.33;;
15635;SDS011;7917;50.818;6.972;2023-04-16T03:35:53;29.45;;;16.13;;
15635;SDS011;7917;50.818;6.972;2023-04-16T03:38:21;33.55;;;16.52;;
15635;SDS011;7917;50.818;6.972;2023-04-16T03:40:48;33.30;;;17.55;;
15635;SDS011;7917;50.818;6.972;2023-04-16T03:43:15;36.53;;;16.48;;
15635;SDS011;7917;50.818;6.972;2023-04-16T03:45:42;30.30;;;16.70;;
15635;SDS011;7917;50.818;6.972;2023-04-16T03:48:09;34.72;;;16.75;;
15635;SDS011;7917;50.818;6.972;2023-04-16T03:50:36;28.70;;;17.35;;
15635;SDS011;7917;50.818;6.972;2023-04-16T03:53:02;31.42;;;16.25;;
15635;SDS011;7917;50.818;6.972;2023-04-16T03:55:30;29.15;;;16.08;;
15635;SDS011;7917;50.818;6.972;2023-04-16T03:57:56;37.70;;;17.30;;
15635;SDS011;7917;50.818;6.972;2023-04-16T04:00:27;29.70;;;16.17;;
15635;SDS011;7917;50.818;6.972;2023-04-16T04:02:54;33.08;;;17.90;;
15635;SDS011;7917;50.818;6.972;2023-04-16T04:05:23;34.95;;;16.90;;
15635;SDS011;7917;50.818;6.972;2023-04-16T04:07:50;33.85;;;17.65;;
15635;SDS011;7917;50.818;6.972;2023-04-16T04:10:16;30.52;;;17.00;;
15635;SDS011;7917;50.818;6.972;2023-04-16T04:12:44;36.45;;;16.35;;
15635;SDS011;7917;50.818;6.972;2023-04-16T04:15:10;35.22;;;17.60;;
15635;SDS011;7917;50.818;6.972;2023-04-16T04:17:37;35.20;;;18.55;;
15635;SDS011;7917;50.818;6.972;2023-04-16T04:20:04;40.40;;;18.27;;
15635;SDS011;7917;50.818;6.972;2023-04-16T04:22:31;35.88;;;18.92;;
15635;SDS011;7917;50.818;6.972;2023-04-16T04:24:58;35.30;;;17.30;;
15635;SDS011;7917;50.818;6.972;2023-04-16T04:27:24;40.72;;;19.50;;
15635;SDS011;7917;50.818;6.972;2023-04-16T04:29:55;37.53;;;18.48;;
15635;SDS011;7917;50.818;6.972;2023-04-16T04:32:23;36.75;;;18.48;;
15635;SDS011;7917;50.818;6.972;2023-04-16T04:34:59;35.38;;;17.67;;
15635;SDS011;7917;50.818;6.972;2023-04-16T04:37:27;38.00;;;19.17;;
15635;SDS011;7917;50.818;6.972;2023-04-16T04:39:53;40.72;;;20.02;;
15635;SDS011;7917;50.818;6.972;2023-04-16T04:42:23;38.88;;;19.40;;
15635;SDS011;7917;50.818;6.972;2023-04-16T04:44:49;40.15;;;20.00;;
15635;SDS011;7917;50.818;6.972;2023-04-16T04:47:17;40.50;;;19.88;;
15635;SDS011;7917;50.818;6.972;2023-04-16T04:49:43;41.72;;;18.90;;
15635;SDS011;7917;50.818;6.972;2023-04-16T04:52:13;34.65;;;20.83;;
15635;SDS011;7917;50.818;6.972;2023-04-16T04:54:40;41.15;;;19.60;;
15635;SDS011;7917;50.818;6.972;2023-04-16T04:57:06;41.13;;;19.20;;
15635;SDS011;7917;50.818;6.972;2023-04-16T04:59:33;39.13;;;20.33;;
15635;SDS011;7917;50.818;6.972;2023-04-16T05:01:59;41.05;;;20.95;;
15635;SDS011;7917;50.818;6.972;2023-04-16T05:04:31;46.40;;;19.65;;
15635;SDS011;7917;50.818;6.972;2023-04-16T05:06:57;38.33;;;19.48;;
15635;SDS011;7917;50.818;6.972;2023-04-16T05:09:24;44.88;;;21.35;;
15635;SDS011;7917;50.818;6.972;2023-04-16T05:11:51;39.80;;;20.50;;
15635;SDS011;7917;50.818;6.972;2023-04-16T05:14:32;42.10;;;20.83;;
15635;SDS011;7917;50.818;6.972;2023-04-16T05:17:10;54.50;;;21.80;;
15635;SDS011;7917;50.818;6.972;2023-04-16T05:19:37;49.55;;;21.52;;
15635;SDS011;7917;50.818;6.972;2023-04-16T05:22:06;45.10;;;21.35;;
15635;SDS011;7917;50.818;6.972;2023-04-16T05:24:33;50.78;;;23.75;;
15635;SDS011;7917;50.818;6.972;2023-04-16T05:27:00;50.53;;;22.40;;
15635;SDS011;7917;50.818;6.972;2023-04-16T05:29:26;51.22;;;21.10;;
15635;SDS011;7917;50.818;6.972;2023-04-16T05:31:53;51.60;;;22.30;;
15635;SDS011;7917;50.818;6.972;2023-04-16T05:34:19;54.58;;;23.15;;
15635;SDS011;7917;50.818;6.972;2023-04-16T05:36:46;54.55;;;23.48;;
15635;SDS011;7917;50.818;6.972;2023-04-16T05:39:15;49.97;;;22.88;;
15635;SDS011;7917;50.818;6.972;2023-04-16T05:41:42;49.78;;;22.65;;
15635;SDS011;7917;50.818;6.972;2023-04-16T05:44:09;43.28;;;20.77;;
15635;SDS011;7917;50.818;6.972;2023-04-16T05:46:35;51.10;;;21.88;;
15635;SDS011;7917;50.818;6.972;2023-04-16T05:49:02;51.22;;;22.05;;
15635;SDS011;7917;50.818;6.972;2023-04-16T05:51:28;42.90;;;21.15;;
15635;SDS011;7917;50.818;6.972;2023-04-16T05:53:57;50.58;;;20.98;;
15635;SDS011;7917;50.818;6.972;2023-04-16T05:56:23;46.28;;;21.40;;
15635;SDS011;7917;50.818;6.972;2023-04-16T05:58:50;45.85;;;20.63;;
15635;SDS011;7917;50.818;6.972;2023-04-16T06:01:19;50.78;;;21.35;;
15635;SDS011;7917;50.818;6.972;2023-04-16T06:03:47;49.22;;;21.10;;
15635;SDS011;7917;50.818;6.972;2023-04-16T06:06:17;46.67;;;21.90;;
15635;SDS011;7917;50.818;6.972;2023-04-16T06:08:43;49.33;;;21.98;;
15635;SDS011;7917;50.818;6.972;2023-04-16T06:11:11;49.05;;;20.77;;
15635;SDS011;7917;50.818;6.972;2023-04-16T06:13:37;40.67;;;20.85;;
15635;SDS011;7917;50.818;6.972;2023-04-16T06:16:04;46.78;;;21.42;;
15635;SDS011;7917;50.818;6.972;2023-04-16T06:18:31;40.22;;;19.50;;
15635;SDS011;7917;50.818;6.972;2023-04-16T06:20:58;40.08;;;20.02;;
15635;SDS011;7917;50.818;6.972;2023-04-16T06:23:24;46.42;;;20.92;;
15635;SDS011;7917;50.818;6.972;2023-04-16T06:25:51;40.40;;;19.92;;
15635;SDS011;7917;50.818;6.972;2023-04-16T06:28:24;46.13;;;21.33;;
15635;SDS011;7917;50.818;6.972;2023-04-16T06:30:51;37.75;;;20.35;;
15635;SDS011;7917;50.818;6.972;2023-04-16T06:33:18;42.10;;;20.45;;
15635;SDS011;7917;50.818;6.972;2023-04-16T06:35:44;43.67;;;19.92;;
15635;SDS011;7917;50.818;6.972;2023-04-16T06:38:11;39.80;;;18.75;;
15635;SDS011;7917;50.818;6.972;2023-04-16T06:40:38;45.10;;;23.55;;
15635;SDS011;7917;50.818;6.972;2023-04-16T06:43:07;45.95;;;21.67;;
15635;SDS011;7917;50.818;6.972;2023-04-16T06:45:34;43.38;;;19.55;;
15635;SDS011;7917;50.818;6.972;2023-04-16T06:48:00;44.25;;;21.52;;
15635;SDS011;7917;50.818;6.972;2023-04-16T06:50:29;38.25;;;18.83;;
15635;SDS011;7917;50.818;6.972;2023-04-16T06:52:56;40.72;;;20.30;;
15635;SDS011;7917;50.818;6.972;2023-04-16T06:55:22;40.17;;;19.65;;
15635;SDS011;7917;50.818;6.972;2023-04-16T06:57:49;40.90;;;20.00;;
15635;SDS011;7917;50.818;6.972;2023-04-16T07:00:16;36.63;;;18.35;;
15635;SDS011;7917;50.818;6.972;2023-04-16T07:02:44;37.60;;;18.27;;
15635;SDS011;7917;50.818;6.972;2023-04-16T07:05:10;34.47;;;17.88;;
15635;SDS011;7917;50.818;6.972;2023-04-16T07:07:39;33.42;;;17.15;;
15635;SDS011;7917;50.818;6.972;2023-04-16T07:10:06;34.97;;;18.42;;
15635;SDS011;7917;50.818;6.972;2023-04-16T07:12:33;36.67;;;18.77;;
15635;SDS011;7917;50.818;6.972;2023-04-16T07:15:00;36.05;;;18.23;;
15635;SDS011;7917;50.818;6.972;2023-04-16T07:17:27;30.08;;;16.98;;
15635;SDS011;7917;50.818;6.972;2023-04-16T07:19:54;32.97;;;16.90;;
15635;SDS011;7917;50.818;6.972;2023-04-16T07:22:21;40.42;;;19.20;;
15635;SDS011;7917;50.818;6.972;2023-04-16T07:24:47;35.30;;;17.35;;
15635;SDS011;7917;50.818;6.972;2023-04-16T07:27:14;36.22;;;18.13;;
15635;SDS011;7917;50.818;6.972;2023-04-16T07:29:41;34.35;;;17.80;;
15635;SDS011;7917;50.818;6.972;2023-04-16T07:32:10;31.20;;;16.73;;
15635;SDS011;7917;50.818;6.972;2023-04-16T07:34:36;28.25;;;16.52;;
15635;SDS011;7917;50.818;6.972;2023-04-16T07:37:04;33.67;;;17.13;;
15635;SDS011;7917;50.818;6.972;2023-04-16T07:39:31;34.70;;;18.05;;
15635;SDS011;7917;50.818;6.972;2023-04-16T07:41:57;29.75;;;16.02;;
15635;SDS011;7917;50.818;6.972;2023-04-16T07:44:24;25.55;;;15.98;;
15635;SDS011;7917;50.818;6.972;2023-04-16T07:46:50;29.50;;;16.55;;
15635;SDS011;7917;50.818;6.972;2023-04-16T07:49:17;29.35;;;16.95;;
15635;SDS011;7917;50.818;6.972;2023-04-16T07:51:45;31.30;;;16.13;;
15635;SDS011;7917;50.818;6.972;2023-04-16T07:54:12;33.92;;;16.75;;
15635;SDS011;7917;50.818;6.972;2023-04-16T07:56:39;32.72;;;15.57;;
15635;SDS011;7917;50.818;6.972;2023-04-16T07:59:05;34.38;;;16.98;;
15635;SDS011;7917;50.818;6.972;2023-04-16T08:01:32;31.25;;;16.88;;
15635;SDS011;7917;50.818;6.972;2023-04-16T08:03:59;30.85;;;17.08;;
15635;SDS011;7917;50.818;6.972;2023-04-16T08:06:26;34.15;;;17.95;;
15635;SDS011;7917;50.818;6.972;2023-04-16T08:08:52;33.40;;;17.35;;
15635;SDS011;7917;50.818;6.972;2023-04-16T08:11:19;32.78;;;17.42;;
15635;SDS011;7917;50.818;6.972;2023-04-16T08:13:46;28.38;;;16.00;;
15635;SDS011;7917;50.818;6.972;2023-04-16T08:16:13;37.45;;;17.58;;
15635;SDS011;7917;50.818;6.972;2023-04-16T08:18:39;31.75;;;16.67;;
15635;SDS011;7917;50.818;6.972;2023-04-16T08:21:06;34.47;;;16.15;;
15635;SDS011;7917;50.818;6.972;2023-04-16T08:23:33;28.15;;;16.13;;
15635;SDS011;7917;50.818;6.972;2023-04-16T08:26:01;28.35;;;16.48;;
15635;SDS011;7917;50.818;6.972;2023-04-16T08:28:29;39.85;;;19.48;;
15635;SDS011;7917;50.818;6.972;2023-04-16T08:30:56;41.63;;;21.58;;
15635;SDS011;7917;50.818;6.972;2023-04-16T08:33:23;43.40;;;22.17;;
15635;SDS011;7917;50.818;6.972;2023-04-16T08:35:49;43.97;;;21.23;;
15635;SDS011;7917;50.818;6.972;2023-04-16T08:38:16;44.03;;;21.38;;
15635;SDS011;7917;50.818;6.972;2023-04-16T08:40:43;45.38;;;25.33;;
15635;SDS011;7917;50.818;6.972;2023-04-16T08:43:12;50.03;;;26.50;;
15635;SDS011;7917;50.818;6.972;2023-04-16T08:45:42;52.83;;;27.83;;
15635;SDS011;7917;50.818;6.972;2023-04-16T08:48:10;61.53;;;32.58;;
15635;SDS011;7917;50.818;6.972;2023-04-16T08:50:38;55.50;;;29.40;;
15635;SDS011;7917;50.818;6.972;2023-04-16T08:53:06;59.80;;;31.25;;
15635;SDS011;7917;50.818;6.972;2023-04-16T08:55:42;65.88;;;30.90;;
15635;SDS011;7917;50.818;6.972;2023-04-16T08:58:12;65.57;;;33.03;;
15635;SDS011;7917;50.818;6.972;2023-04-16T09:00:40;66.03;;;33.38;;
15635;SDS011;7917;50.818;6.972;2023-04-16T09:03:08;66.40;;;32.65;;
15635;SDS011;7917;50.818;6.972;2023-04-16T09:05:35;69.43;;;33.25;;
15635;SDS011;7917;50.818;6.972;2023-04-16T09:08:03;67.03;;;33.75;;
15635;SDS011;7917;50.818;6.972;2023-04-16T09:10:30;58.30;;;32.10;;
15635;SDS011;7917;50.818;6.972;2023-04-16T09:12:58;58.92;;;31.60;;
15635;SDS011;7917;50.818;6.972;2023-04-16T09:15:25;57.20;;;31.13;;
15635;SDS011;7917;50.818;6.972;2023-04-16T09:17:52;53.85;;;30.42;;
15635;SDS011;7917;50.818;6.972;2023-04-16T09:20:20;56.13;;;30.73;;
15635;SDS011;7917;50.818;6.972;2023-04-16T09:22:47;56.03;;;30.02;;
15635;SDS011;7917;50.818;6.972;2023-04-16T09:25:14;54.50;;;30.15;;
15635;SDS011;7917;50.818;6.972;2023-04-16T09:27:42;54.38;;;29.55;;
15635;SDS011;7917;50.818;6.972;2023-04-16T09:30:19;58.35;;;30.65;;
15635;SDS011;7917;50.818;6.972;2023-04-16T09:32:47;55.20;;;29.75;;
15635;SDS011;7917;50.818;6.972;2023-04-16T09:35:15;52.17;;;30.67;;
15635;SDS011;7917;50.818;6.972;2023-04-16T09:37:43;52.42;;;29.65;;
15635;SDS011;7917;50.818;6.972;2023-04-16T09:40:22;48.30;;;28.20;;
15635;SDS011;7917;50.818;6.972;2023-04-16T09:42:50;47.70;;;28.52;;
15635;SDS011;7917;50.818;6.972;2023-04-16T09:45:18;55.00;;;29.45;;
15635;SDS011;7917;50.818;6.972;2023-04-16T09:47:45;51.45;;;30.70;;
15635;SDS011;7917;50.818;6.972;2023-04-16T09:50:13;59.25;;;31.83;;
15635;SDS011;7917;50.818;6.972;2023-04-16T09:52:42;66.82;;;36.30;;
15635;SDS011;7917;50.818;6.972;2023-04-16T09:55:10;61.67;;;35.58;;
15635;SDS011;7917;50.818;6.972;2023-04-16T09:57:37;64.30;;;36.08;;
15635;SDS011;7917;50.818;6.972;2023-04-16T10:00:05;60.15;;;34.55;;
15635;SDS011;7917;50.818;6.972;2023-04-16T10:02:33;59.15;;;34.60;;
15635;SDS011;7917;50.818;6.972;2023-04-16T10:05:03;61.58;;;32.67;;
15635;SDS011;7917;50.818;6.972;2023-04-16T10:07:33;51.72;;;32.13;;
15635;SDS011;7917;50.818;6.972;2023-04-16T10:10:00;51.03;;;31.65;;
15635;SDS011;7917;50.818;6.972;2023-04-16T10:12:28;51.63;;;31.77;;
15635;SDS011;7917;50.818;6.972;2023-04-16T10:14:56;50.45;;;30.70;;
15635;SDS011;7917;50.818;6.972;2023-04-16T10:17:23;47.65;;;29.83;;
15635;SDS011;7917;50.818;6.972;2023-04-16T10:19:51;51.78;;;30.73;;
15635;SDS011;7917;50.818;6.972;2023-04-16T10:22:20;44.20;;;28.77;;
15635;SDS011;7917;50.818;6.972;2023-04-16T10:24:47;47.55;;;28.70;;
15635;SDS011;7917;50.818;6.972;2023-04-16T10:27:14;46.35;;;29.10;;
15635;SDS011;7917;50.818;6.972;2023-04-16T10:29:41;42.55;;;28.48;;
15635;SDS011;7917;50.818;6.972;2023-04-16T10:32:09;42.15;;;27.17;;
15635;SDS011;7917;50.818;6.972;2023-04-16T10:34:37;42.35;;;26.75;;
15635;SDS011;7917;50.818;6.972;2023-04-16T10:37:04;41.17;;;26.60;;
15635;SDS011;7917;50.818;6.972;2023-04-16T10:39:33;40.03;;;26.50;;
15635;SDS011;7917;50.818;6.972;2023-04-16T10:42:08;43.40;;;26.63;;
15635;SDS011;7917;50.818;6.972;2023-04-16T10:44:36;38.30;;;25.08;;
15635;SDS011;7917;50.818;6.972;2023-04-16T10:47:08;37.65;;;24.73;;
15635;SDS011;7917;50.818;6.972;2023-04-16T10:49:36;33.60;;;23.85;;
15635;SDS011;7917;50.818;6.972;2023-04-16T10:52:07;35.90;;;24.90;;
15635;SDS011;7917;50.818;6.972;2023-04-16T10:54:36;42.95;;;25.15;;
15635;SDS011;7917;50.818;6.972;2023-04-16T10:57:04;37.92;;;24.80;;
15635;SDS011;7917;50.818;6.972;2023-04-16T10:59:33;41.17;;;26.40;;
15635;SDS011;7917;50.818;6.972;2023-04-16T11:02:01;36.47;;;24.70;;
15635;SDS011;7917;50.818;6.972;2023-04-16T11:04:33;37.50;;;25.83;;
15635;SDS011;7917;50.818;6.972;2023-04-16T11:07:01;40.85;;;27.98;;
15635;SDS011;7917;50.818;6.972;2023-04-16T11:09:50;38.17;;;25.83;;
15635;SDS011;7917;50.818;6.972;2023-04-16T11:12:24;42.05;;;27.95;;
15635;SDS011;7917;50.818;6.972;2023-04-16T11:14:53;41.70;;;27.83;;
15635;SDS011;7917;50.818;6.972;2023-04-16T11:17:26;40.15;;;28.55;;
15635;SDS011;7917;50.818;6.972;2023-04-16T11:19:54;50.33;;;28.52;;
15635;SDS011;7917;50.818;6.972;2023-04-16T11:22:21;44.13;;;29.27;;
15635;SDS011;7917;50.818;6.972;2023-04-16T11:24:52;44.35;;;29.73;;
15635;SDS011;7917;50.818;6.972;2023-04-16T11:27:21;46.28;;;30.98;;
15635;SDS011;7917;50.818;6.972;2023-04-16T11:29:56;45.65;;;29.58;;
15635;SDS011;7917;50.818;6.972;2023-04-16T11:32:23;43.33;;;29.17;;
15635;SDS011;7917;50.818;6.972;2023-04-16T11:34:50;41.65;;;28.45;;
15635;SDS011;7917;50.818;6.972;2023-04-16T11:37:18;46.13;;;27.55;;
15635;SDS011;7917;50.818;6.972;2023-04-16T11:39:47;39.50;;;27.33;;
15635;SDS011;7917;50.818;6.972;2023-04-16T11:42:18;41.67;;;27.00;;
15635;SDS011;7917;50.818;6.972;2023-04-16T11:44:49;38.00;;;26.98;;
15635;SDS011;7917;50.818;6.972;2023-04-16T11:47:18;37.20;;;26.20;;
15635;SDS011;7917;50.818;6.972;2023-04-16T11:49:45;38.83;;;27.13;;
15635;SDS011;7917;50.818;6.972;2023-04-16T11:52:12;36.17;;;26.35;;
15635;SDS011;7917;50.818;6.972;2023-04-16T11:54:38;39.00;;;26.70;;
15635;SDS011;7917;50.818;6.972;2023-04-16T11:57:05;41.45;;;27.75;;
15635;SDS011;7917;50.818;6.972;2023-04-16T11:59:32;40.25;;;29.33;;
15635;SDS011;7917;50.818;6.972;2023-04-16T12:01:58;41.17;;;29.08;;
15635;SDS011;7917;50.818;6.972;2023-04-16T12:04:26;40.92;;;28.65;;
15635;SDS011;7917;50.818;6.972;2023-04-16T12:07:06;40.30;;;27.60;;
15635;SDS011;7917;50.818;6.972;2023-04-16T12:09:34;39.88;;;27.05;;
15635;SDS011;7917;50.818;6.972;2023-04-16T12:12:02;35.88;;;25.48;;
15635;SDS011;7917;50.818;6.972;2023-04-16T12:14:29;39.13;;;27.17;;
15635;SDS011;7917;50.818;6.972;2023-04-16T12:17:01;33.95;;;25.67;;
15635;SDS011;7917;50.818;6.972;2023-04-16T12:19:50;33.42;;;24.70;;
15635;SDS011;7917;50.818;6.972;2023-04-16T12:22:25;38.53;;;26.42;;
15635;SDS011;7917;50.818;6.972;2023-04-16T12:24:54;37.15;;;25.80;;
15635;SDS011;7917;50.818;6.972;2023-04-16T12:27:23;40.45;;;28.17;;
15635;SDS011;7917;50.818;6.972;2023-04-16T12:30:03;37.90;;;25.23;;
15635;SDS011;7917;50.818;6.972;2023-04-16T12:32:31;37.40;;;25.65;;
15635;SDS011;7917;50.818;6.972;2023-04-16T12:34:59;32.38;;;24.25;;
15635;SDS011;7917;50.818;6.972;2023-04-16T12:37:26;31.58;;;23.45;;
15635;SDS011;7917;50.818;6.972;2023-04-16T12:39:53;32.90;;;24.52;;
15635;SDS011;7917;50.818;6.972;2023-04-16T12:42:19;36.17;;;25.67;;
15635;SDS011;7917;50.818;6.972;2023-04-16T12:44:46;33.65;;;24.88;;
15635;SDS011;7917;50.818;6.972;2023-04-16T12:47:13;34.83;;;24.98;;
15635;SDS011;7917;50.818;6.972;2023-04-16T12:49:41;37.30;;;26.52;;
15635;SDS011;7917;50.818;6.972;2023-04-16T12:52:09;33.45;;;25.00;;
15635;SDS011;7917;50.818;6.972;2023-04-16T12:54:36;34.47;;;24.98;;
15635;SDS011;7917;50.818;6.972;2023-04-16T12:57:03;36.05;;;25.98;;
15635;SDS011;7917;50.818;6.972;2023-04-16T12:59:30;32.78;;;24.95;;
15635;SDS011;7917;50.818;6.972;2023-04-16T13:01:56;36.10;;;24.85;;
15635;SDS011;7917;50.818;6.972;2023-04-16T13:04:25;33.53;;;23.10;;
15635;SDS011;7917;50.818;6.972;2023-04-16T13:06:52;32.63;;;24.20;;
15635;SDS011;7917;50.818;6.972;2023-04-16T13:09:19;31.65;;;23.23;;
15635;SDS011;7917;50.818;6.972;2023-04-16T13:11:46;32.40;;;23.73;;
15635;SDS011;7917;50.818;6.972;2023-04-16T13:14:12;29.17;;;23.70;;
15635;SDS011;7917;50.818;6.972;2023-04-16T13:16:39;33.95;;;23.23;;
15635;SDS011;7917;50.818;6.972;2023-04-16T13:19:06;28.70;;;21.48;;
15635;SDS011;7917;50.818;6.972;2023-04-16T13:21:33;26.63;;;20.05;;
15635;SDS011;7917;50.818;6.972;2023-04-16T13:24:00;26.40;;;20.88;;
15635;SDS011;7917;50.818;6.972;2023-04-16T13:26:27;23.45;;;18.52;;
15635;SDS011;7917;50.818;6.972;2023-04-16T13:28:54;23.25;;;17.83;;
15635;SDS011;7917;50.818;6.972;2023-04-16T13:31:21;26.92;;;18.73;;
15635;SDS011;7917;50.818;6.972;2023-04-16T13:33:48;21.63;;;17.33;;
15635;SDS011;7917;50.818;6.972;2023-04-16T13:36:16;22.83;;;17.58;;
15635;SDS011;7917;50.818;6.972;2023-04-16T13:38:43;25.83;;;19.58;;
15635;SDS011;7917;50.818;6.972;2023-04-16T13:41:10;22.88;;;17.58;;
15635;SDS011;7917;50.818;6.972;2023-04-16T13:43:37;20.15;;;15.63;;
15635;SDS011;7917;50.818;6.972;2023-04-16T13:46:04;22.10;;;16.55;;
15635;SDS011;7917;50.818;6.972;2023-04-16T13:48:31;21.38;;;16.08;;
15635;SDS011;7917;50.818;6.972;2023-04-16T13:50:58;19.73;;;15.15;;
15635;SDS011;7917;50.818;6.972;2023-04-16T13:53:24;27.90;;;16.42;;
15635;SDS011;7917;50.818;6.972;2023-04-16T13:55:51;19.58;;;16.45;;
15635;SDS011;7917;50.818;6.972;2023-04-16T13:58:20;19.25;;;15.82;;
15635;SDS011;7917;50.818;6.972;2023-04-16T14:00:47;21.95;;;15.75;;
15635;SDS011;7917;50.818;6.972;2023-04-16T14:03:14;21.88;;;17.95;;
15635;SDS011;7917;50.818;6.972;2023-04-16T14:05:43;21.85;;;17.77;;
15635;SDS011;7917;50.818;6.972;2023-04-16T14:08:12;18.80;;;15.23;;
15635;SDS011;7917;50.818;6.972;2023-04-16T14:10:41;19.40;;;16.20;;
15635;SDS011;7917;50.818;6.972;2023-04-16T14:13:08;18.58;;;15.45;;
15635;SDS011;7917;50.818;6.972;2023-04-16T14:15:35;19.27;;;15.30;;
15635;SDS011;7917;50.818;6.972;2023-04-16T14:18:02;16.83;;;14.65;;
15635;SDS011;7917;50.818;6.972;2023-04-16T14:20:29;20.25;;;16.02;;
15635;SDS011;7917;50.818;6.972;2023-04-16T14:22:56;17.73;;;15.75;;
15635;SDS011;7917;50.818;6.972;2023-04-16T14:25:23;17.92;;;15.10;;
15635;SDS011;7917;50.818;6.972;2023-04-16T14:27:50;20.88;;;15.95;;
15635;SDS011;7917;50.818;6.972;2023-04-16T14:30:17;20.52;;;15.25;;
15635;SDS011;7917;50.818;6.972;2023-04-16T14:32:44;18.65;;;15.68;;
15635;SDS011;7917;50.818;6.972;2023-04-16T14:35:14;15.93;;;14.23;;
15635;SDS011;7917;50.818;6.972;2023-04-16T14:37:41;17.50;;;13.90;;